createdAt,value
2019-04-12T00:01:33.814Z,64.04
2019-04-12T00:04:03.492Z,63.60
2019-04-12T00:06:33.675Z,62.67
2019-04-12T00:09:05.007Z,61.88
2019-04-12T00:11:34.526Z,62.30
2019-04-12T00:14:04.614Z,62.91
2019-04-12T00:16:34.166Z,63.35
2019-04-12T00:19:03.673Z,63.87
2019-04-12T00:21:33.146Z,63.96
2019-04-12T00:24:02.631Z,63.98
2019-04-12T00:26:32.099Z,64.17
2019-04-12T00:29:01.637Z,63.90
2019-04-12T00:31:31.134Z,64.25
2019-04-12T00:34:00.583Z,63.32
2019-04-12T00:36:31.843Z,64.49
2019-04-12T00:39:01.357Z,63.21
2019-04-12T00:41:32.557Z,63.65
2019-04-12T00:44:03.175Z,63.51
2019-04-12T00:46:35.056Z,63.58
2019-04-12T00:49:04.161Z,63.54
2019-04-12T00:51:33.638Z,63.37
2019-04-12T00:54:03.215Z,63.44
2019-04-12T00:56:32.772Z,63.30
2019-04-12T00:59:02.405Z,62.65
2019-04-12T01:01:33.593Z,62.90
2019-04-12T01:04:04.953Z,62.69
2019-04-12T01:06:34.539Z,62.57
2019-04-12T01:09:05.645Z,63.71
2019-04-12T01:11:35.109Z,64.56
2019-04-12T01:14:05.687Z,65.57
2019-04-12T01:16:35.870Z,64.91
2019-04-12T01:19:05.425Z,65.39
2019-04-12T01:21:37.432Z,65.23
2019-04-12T01:24:08.150Z,64.73
2019-04-12T01:26:38.229Z,64.12
2019-04-12T01:29:07.765Z,64.78
2019-04-12T01:31:37.200Z,65.05
2019-04-12T01:34:06.816Z,64.25
2019-04-12T01:36:36.241Z,64.19
2019-04-12T01:39:07.746Z,63.28
2019-04-12T01:41:37.225Z,62.41
2019-04-12T01:44:06.742Z,62.85
2019-04-12T01:46:36.254Z,62.04
2019-04-12T01:49:05.752Z,61.65
2019-04-12T01:51:35.295Z,62.54
2019-04-12T01:54:04.850Z,62.07
2019-04-12T01:56:34.346Z,60.93
2019-04-12T01:59:03.894Z,60.99
2019-04-12T02:01:33.379Z,62.33
2019-04-12T02:04:02.946Z,62.59
2019-04-12T02:06:32.441Z,62.18
2019-04-12T02:09:01.935Z,61.76
2019-04-12T02:11:31.559Z,62.65
2019-04-12T02:14:01.158Z,62.04
2019-04-12T02:16:30.666Z,62.43
2019-04-12T02:19:00.140Z,62.04
2019-04-12T02:21:29.793Z,60.53
2019-04-12T02:23:59.359Z,61.68
2019-04-12T02:26:28.834Z,61.92
2019-04-12T02:28:58.340Z,60.89
2019-04-12T02:31:38.878Z,60.81
2019-04-12T02:34:08.545Z,61.08
2019-04-12T02:36:38.188Z,60.80
2019-04-12T02:39:08.725Z,61.08
2019-04-12T02:41:40.449Z,60.65
2019-04-12T02:44:12.609Z,60.71
2019-04-12T02:46:59.938Z,60.68
2019-04-12T02:49:31.814Z,60.96
2019-04-12T02:52:07.806Z,61.19
2019-04-12T02:54:44.839Z,60.61
2019-04-12T02:57:23.659Z,60.18
2019-04-12T02:59:54.691Z,61.47
2019-04-12T03:02:26.488Z,61.90
2019-04-12T03:04:56.072Z,61.88
2019-04-12T03:07:25.714Z,62.91
2019-04-12T03:09:57.486Z,62.24
2019-04-12T03:12:30.472Z,61.68
2019-04-12T03:15:02.358Z,60.93
2019-04-12T03:17:32.745Z,61.05
2019-04-12T03:20:02.569Z,61.42
2019-04-12T03:22:32.409Z,61.85
2019-04-12T03:25:02.130Z,61.45
2019-04-12T03:27:31.951Z,61.13
2019-04-12T03:30:02.683Z,61.30
2019-04-12T03:32:32.590Z,60.90
2019-04-12T03:35:02.346Z,61.35
2019-04-12T03:37:31.949Z,60.80
2019-04-12T03:40:01.665Z,62.21
2019-04-12T03:42:31.571Z,62.36
2019-04-12T03:45:01.219Z,60.73
2019-04-12T03:47:30.825Z,61.75
2019-04-12T03:50:00.453Z,59.98
2019-04-12T03:52:30.034Z,61.42
2019-04-12T03:54:59.580Z,61.15
2019-04-12T03:57:29.381Z,60.73
2019-04-12T04:00:00.471Z,59.70
2019-04-12T04:02:30.206Z,61.23
2019-04-12T04:04:59.745Z,60.30
2019-04-12T04:07:29.385Z,59.79
2019-04-12T04:09:59.145Z,59.65
2019-04-12T04:12:29.004Z,58.87
2019-04-12T04:14:59.160Z,60.06
2019-04-12T04:17:36.418Z,59.68
2019-04-12T04:20:27.370Z,59.37
2019-04-12T04:23:05.337Z,59.91
2019-04-12T04:25:45.859Z,58.32
2019-04-12T04:28:31.710Z,58.79
2019-04-12T04:31:03.679Z,59.16
2019-04-12T04:33:33.389Z,58.47
2019-04-12T04:36:03.823Z,59.85
2019-04-12T04:38:33.570Z,59.86
2019-04-12T04:41:03.389Z,61.12
2019-04-12T04:43:33.112Z,59.89
2019-04-12T04:46:03.557Z,61.32
2019-04-12T04:48:33.568Z,59.30
2019-04-12T04:51:03.454Z,59.15
2019-04-12T04:53:33.443Z,60.25
2019-04-12T04:56:03.525Z,62.18
2019-04-12T04:58:33.230Z,58.65
2019-04-12T05:01:02.974Z,57.72
2019-04-12T05:03:33.502Z,59.34
2019-04-12T05:06:03.508Z,57.67
2019-04-12T05:08:33.224Z,59.09
2019-04-12T05:11:03.156Z,59.51
2019-04-12T05:13:32.927Z,58.35
2019-04-12T05:16:02.708Z,58.48
2019-04-12T05:18:32.514Z,57.99
2019-04-12T05:21:02.181Z,58.04
2019-04-12T05:23:31.842Z,57.65
2019-04-12T05:26:01.454Z,56.72
2019-04-12T05:28:31.292Z,57.89
2019-04-12T05:31:00.854Z,57.91
2019-04-12T05:33:30.530Z,57.08
2019-04-12T05:36:00.139Z,55.63
2019-04-12T05:38:29.811Z,55.51
2019-04-12T05:40:59.505Z,55.48
2019-04-12T05:43:31.699Z,55.07
2019-04-12T05:46:11.937Z,55.55
2019-04-12T05:48:49.758Z,55.27
2019-04-12T05:51:22.728Z,55.04
2019-04-12T05:53:50.652Z,55.60
2019-04-12T05:56:20.127Z,54.35
2019-04-12T05:58:53.947Z,56.29
2019-04-12T06:01:28.139Z,53.81
2019-04-12T06:03:58.921Z,53.78
2019-04-12T06:06:32.170Z,53.92
2019-04-12T06:08:59.881Z,53.99
2019-04-12T06:11:29.763Z,54.90
2019-04-12T06:14:00.037Z,55.24
2019-04-12T06:16:29.661Z,54.32
2019-04-12T06:19:02.507Z,55.41
2019-04-12T06:21:49.964Z,54.54
2019-04-12T06:24:19.437Z,55.65
2019-04-12T06:27:09.397Z,55.26
2019-04-12T06:29:30.658Z,55.70
2019-04-12T06:32:00.378Z,55.94
2019-04-12T06:34:30.041Z,55.52
2019-04-12T06:36:59.554Z,55.49
2019-04-12T06:39:29.060Z,54.47
2019-04-12T06:41:58.964Z,53.49
2019-04-12T06:44:28.602Z,54.70
2019-04-12T06:46:58.223Z,53.15
2019-04-12T06:49:27.825Z,53.12
2019-04-12T06:51:57.364Z,52.45
2019-04-12T06:54:26.852Z,54.42
2019-04-12T06:56:57.988Z,54.51
2019-04-12T06:59:27.470Z,54.03
2019-04-12T07:01:58.691Z,53.26
2019-04-12T07:04:32.812Z,53.50
2019-04-12T07:07:02.895Z,52.52
2019-04-12T07:09:32.462Z,52.71
2019-04-12T07:12:02.077Z,52.69
2019-04-12T07:14:31.538Z,53.66
2019-04-12T07:17:01.106Z,53.45
2019-04-12T07:19:30.656Z,54.30
2019-04-12T07:22:00.137Z,51.73
2019-04-12T07:24:29.651Z,51.78
2019-04-12T07:26:59.386Z,52.90
2019-04-12T07:29:29.127Z,50.91
2019-04-12T07:31:58.627Z,51.17
2019-04-12T07:34:28.099Z,50.13
2019-04-12T07:36:57.604Z,50.01
2019-04-12T07:39:27.099Z,49.38
2019-04-12T07:41:56.569Z,48.37
2019-04-12T07:44:26.069Z,48.47
2019-04-12T07:46:55.638Z,48.35
2019-04-12T07:49:25.187Z,46.05
2019-04-12T07:52:12.251Z,48.11
2019-04-12T07:54:56.457Z,46.26
2019-04-12T07:57:30.650Z,46.18
2019-04-12T08:00:02.296Z,47.10
2019-04-12T08:02:51.386Z,43.93
2019-04-12T08:05:25.097Z,42.82
2019-04-12T08:07:56.302Z,41.05
2019-04-12T08:10:25.812Z,40.83
2019-04-12T08:12:55.297Z,40.80
2019-04-12T08:15:24.864Z,41.54
2019-04-12T08:17:54.347Z,42.75
2019-04-12T08:20:23.920Z,46.32
2019-04-12T08:22:54.692Z,45.21
2019-04-12T08:25:24.321Z,45.50
2019-04-12T08:27:58.693Z,43.28
2019-04-12T08:30:25.492Z,45.12
2019-04-12T08:32:55.062Z,46.37
2019-04-12T08:35:24.564Z,46.85
2019-04-12T08:38:04.338Z,46.89
2019-04-12T08:40:25.514Z,44.63
2019-04-12T08:42:55.044Z,45.03
2019-04-12T08:45:24.709Z,44.72
2019-04-12T08:47:54.182Z,44.84
2019-04-12T08:50:23.676Z,45.59
2019-04-12T08:52:53.191Z,42.96
2019-04-12T08:55:22.734Z,43.59
2019-04-12T08:57:52.228Z,42.96
2019-04-12T09:00:21.935Z,42.15
2019-04-12T09:02:58.804Z,41.78
2019-04-12T09:05:32.190Z,40.38
2019-04-12T09:07:53.944Z,39.65
2019-04-12T09:10:23.466Z,40.60
2019-04-12T09:12:53.009Z,40.97
2019-04-12T09:15:22.673Z,39.79
2019-04-12T09:17:52.399Z,39.04
2019-04-12T09:20:32.649Z,41.28
2019-04-12T09:23:13.821Z,40.86
2019-04-12T09:25:44.930Z,41.91
2019-04-12T09:28:24.565Z,42.33
2019-04-12T09:30:45.692Z,42.85
2019-04-12T09:33:15.211Z,43.32
2019-04-12T09:35:47.072Z,42.93
2019-04-12T09:38:16.160Z,42.69
2019-04-12T09:40:45.755Z,43.39
2019-04-12T09:43:15.263Z,43.06
2019-04-12T09:45:44.799Z,43.89
2019-04-12T09:48:14.287Z,44.23
2019-04-12T09:50:43.863Z,43.64
2019-04-12T09:53:13.385Z,46.19
2019-04-12T09:55:42.917Z,44.10
2019-04-12T09:58:12.366Z,44.32
2019-04-12T10:00:41.975Z,43.96
2019-04-12T10:03:11.456Z,44.17
2019-04-12T10:05:40.952Z,44.96
2019-04-12T10:08:10.448Z,46.55
2019-04-12T10:10:39.951Z,46.36
2019-04-12T10:13:09.459Z,47.78
2019-04-12T10:15:38.951Z,47.51
2019-04-12T10:18:08.521Z,46.61
2019-04-12T10:20:38.008Z,47.88
2019-04-12T10:23:07.581Z,45.84
2019-04-12T10:25:37.084Z,43.79
2019-04-12T10:28:06.568Z,44.69
2019-04-12T10:30:36.164Z,42.97
2019-04-12T10:33:05.769Z,43.95
2019-04-12T10:35:35.273Z,44.74
2019-04-12T10:38:04.846Z,45.22
2019-04-12T10:40:34.717Z,46.32
2019-04-12T10:43:04.285Z,45.16
2019-04-12T10:45:33.549Z,43.72
2019-04-12T10:48:07.317Z,42.13
2019-04-12T10:50:42.643Z,42.95
2019-04-12T10:53:14.853Z,42.20
2019-04-12T10:55:48.726Z,41.56
2019-04-12T10:58:18.227Z,41.90
2019-04-12T11:00:52.242Z,39.99
2019-04-12T11:03:21.726Z,40.17
2019-04-12T11:05:51.246Z,41.65
2019-04-12T11:08:20.819Z,41.75
2019-04-12T11:10:50.404Z,43.02
2019-04-12T11:13:19.988Z,43.18
2019-04-12T11:15:49.557Z,43.39
2019-04-12T11:18:19.066Z,41.68
2019-04-12T11:20:48.549Z,40.81
2019-04-12T11:23:18.044Z,42.19
2019-04-12T11:25:47.593Z,39.13
2019-04-12T11:28:17.100Z,38.97
2019-04-12T11:30:46.607Z,39.16
2019-04-12T11:33:16.123Z,39.10
2019-04-12T11:35:45.669Z,38.45
2019-04-12T11:38:15.187Z,38.82
2019-04-12T11:40:44.687Z,40.13
2019-04-12T11:43:14.200Z,39.77
2019-04-12T11:45:46.182Z,39.66
2019-04-12T11:48:14.986Z,41.63
2019-04-12T11:50:44.586Z,40.87
2019-04-12T11:53:14.060Z,41.44
2019-04-12T11:55:43.646Z,43.82
2019-04-12T11:58:13.904Z,45.80
2019-04-12T12:00:45.105Z,46.03
2019-04-12T12:03:23.346Z,48.01
2019-04-12T12:06:00.567Z,46.12
2019-04-12T12:08:34.526Z,46.30
2019-04-12T12:11:05.745Z,47.03
2019-04-12T12:13:39.612Z,46.43
2019-04-12T12:16:10.743Z,47.00
2019-04-12T12:18:48.837Z,47.24
2019-04-12T12:21:18.358Z,47.80
2019-04-12T12:23:47.832Z,47.21
2019-04-12T12:26:17.479Z,46.20
2019-04-12T12:28:46.966Z,48.73
2019-04-12T12:31:16.584Z,47.36
2019-04-12T12:33:46.151Z,49.04
2019-04-12T12:36:15.721Z,47.61
2019-04-12T12:38:45.213Z,48.29
2019-04-12T12:41:14.779Z,47.90
2019-04-12T12:43:44.299Z,48.44
2019-04-12T12:46:13.956Z,48.24
2019-04-12T12:48:43.513Z,47.97
2019-04-12T12:51:13.041Z,47.14
2019-04-12T12:53:42.475Z,46.68
2019-04-12T12:56:11.989Z,46.59
2019-04-12T12:58:41.470Z,47.40
2019-04-12T13:01:11.052Z,48.42
2019-04-12T13:03:40.619Z,46.80
2019-04-12T13:06:10.244Z,43.88
2019-04-12T13:08:39.790Z,45.64
2019-04-12T13:11:09.382Z,47.21
2019-04-12T13:13:38.916Z,47.96
2019-04-12T13:16:08.408Z,43.14
2019-04-12T13:18:37.947Z,49.01
2019-04-12T13:21:07.514Z,47.56
2019-04-12T13:23:37.035Z,47.91
2019-04-12T13:26:06.779Z,48.44
2019-04-12T13:28:37.138Z,51.61
2019-04-12T13:31:14.187Z,49.77
2019-04-12T13:33:58.250Z,50.44
2019-04-12T13:36:27.598Z,51.31
2019-04-12T13:38:58.727Z,49.93
2019-04-12T13:41:28.282Z,50.90
2019-04-12T13:43:57.833Z,50.02
2019-04-12T13:46:27.308Z,50.82
2019-04-12T13:48:56.841Z,50.28
2019-04-12T13:51:26.400Z,51.46
2019-04-12T13:53:56.114Z,49.74
2019-04-12T13:56:25.602Z,49.76
2019-04-12T13:58:56.752Z,50.40
2019-04-12T14:01:26.500Z,50.73
2019-04-12T14:04:15.731Z,50.74
2019-04-12T14:06:45.574Z,50.07
2019-04-12T14:09:15.137Z,49.80
2019-04-12T14:11:44.652Z,50.75
2019-04-12T14:14:14.187Z,50.56
2019-04-12T14:16:43.777Z,50.95
2019-04-12T14:19:13.379Z,51.44
2019-04-12T14:21:42.938Z,52.45
2019-04-12T14:24:12.447Z,50.52
2019-04-12T14:26:42.005Z,51.14
2019-04-12T14:29:11.591Z,51.11
2019-04-12T14:31:42.773Z,52.71
2019-04-12T14:34:14.002Z,53.91
2019-04-12T14:36:46.082Z,52.19
2019-04-12T14:39:19.728Z,52.65
2019-04-12T14:41:49.438Z,51.28
2019-04-12T14:44:20.697Z,51.19
2019-04-12T14:46:54.742Z,51.27
2019-04-12T14:49:24.263Z,50.47
2019-04-12T14:51:53.744Z,50.03
2019-04-12T14:54:23.810Z,49.83
2019-04-12T14:56:53.676Z,50.56
2019-04-12T14:59:23.341Z,48.78
2019-04-12T15:01:52.998Z,49.70
2019-04-12T15:04:22.492Z,50.33
2019-04-12T15:06:52.055Z,47.28
2019-04-12T15:09:24.588Z,47.87
2019-04-12T15:11:54.184Z,46.27
2019-04-12T15:14:23.739Z,46.73
2019-04-12T15:16:53.425Z,44.76
2019-04-12T15:19:22.908Z,44.20
2019-04-12T15:21:52.488Z,44.54
2019-04-12T15:24:22.032Z,44.27
2019-04-12T15:26:51.532Z,44.76
2019-04-12T15:29:21.089Z,44.45
2019-04-12T15:31:50.573Z,45.11
2019-04-12T15:34:20.054Z,46.34
2019-04-12T15:36:50.499Z,46.11
2019-04-12T15:39:21.517Z,45.83
2019-04-12T15:41:51.102Z,45.73
2019-04-12T15:44:20.609Z,44.91
2019-04-12T15:46:50.080Z,46.44
2019-04-12T15:49:19.585Z,48.03
2019-04-12T15:51:49.052Z,50.31
2019-04-12T15:54:18.664Z,50.74
2019-04-12T15:56:48.304Z,50.63
2019-04-12T15:59:18.209Z,50.26
2019-04-12T16:01:48.106Z,51.62
2019-04-12T16:04:17.900Z,51.55
2019-04-12T16:06:47.542Z,52.99
2019-04-12T16:09:21.947Z,51.85
2019-04-12T16:12:10.295Z,51.28
2019-04-12T16:15:11.432Z,52.27
2019-04-12T16:18:06.844Z,52.52
2019-04-12T16:20:36.984Z,51.42
2019-04-12T16:23:06.605Z,52.78
2019-04-12T16:25:36.701Z,52.87
2019-04-12T16:28:11.267Z,53.95
2019-04-12T16:30:44.402Z,53.82
2019-04-12T16:33:16.724Z,53.21
2019-04-12T16:36:05.717Z,52.95
2019-04-12T16:38:36.443Z,55.03
2019-04-12T16:41:06.270Z,54.56
2019-04-12T16:43:35.776Z,53.00
2019-04-12T16:46:05.388Z,54.10
2019-04-12T16:48:34.944Z,54.17
2019-04-12T16:51:04.502Z,54.38
2019-04-12T16:53:34.001Z,54.48
2019-04-12T16:56:03.649Z,56.92
2019-04-12T16:58:33.217Z,57.78
2019-04-12T17:01:02.780Z,59.18
2019-04-12T17:03:32.278Z,59.63
2019-04-12T17:06:01.909Z,60.18
2019-04-12T17:08:31.382Z,60.58
2019-04-12T17:11:01.110Z,61.60
2019-04-12T17:13:30.633Z,62.18
2019-04-12T17:16:00.118Z,63.12
2019-04-12T17:18:29.605Z,62.59
2019-04-12T17:20:59.133Z,62.84
2019-04-12T17:23:28.612Z,61.15
2019-04-12T17:25:58.151Z,61.92
2019-04-12T17:28:27.647Z,60.18
2019-04-12T17:30:57.225Z,58.19
2019-04-12T17:33:26.810Z,58.62
2019-04-12T17:35:57.203Z,58.86
2019-04-12T17:38:26.861Z,59.07
2019-04-12T17:40:56.436Z,59.02
2019-04-12T17:43:25.918Z,61.20
2019-04-12T17:45:55.421Z,59.29
2019-04-12T17:48:29.337Z,60.97
2019-04-12T17:51:00.201Z,60.45
2019-04-12T17:53:47.614Z,61.20
2019-04-12T17:56:27.166Z,60.40
2019-04-12T17:58:50.128Z,61.00
2019-04-12T18:01:21.357Z,61.97
2019-04-12T18:03:52.477Z,61.71
2019-04-12T18:06:22.047Z,61.91
2019-04-12T18:08:51.614Z,61.80
2019-04-12T18:11:25.521Z,62.19
2019-04-12T18:13:55.040Z,60.89
2019-04-12T18:16:24.598Z,61.99
2019-04-12T18:18:54.075Z,62.20
2019-04-12T18:21:23.579Z,61.70
2019-04-12T18:23:53.041Z,61.85
2019-04-12T18:26:22.577Z,61.62
2019-04-12T18:28:52.149Z,62.64
2019-04-12T18:31:21.648Z,62.00
2019-04-12T18:33:51.164Z,63.86
2019-04-12T18:36:20.624Z,64.46
2019-04-12T18:38:50.269Z,63.90
2019-04-12T18:41:19.824Z,65.14
2019-04-12T18:43:49.320Z,65.12
2019-04-12T18:46:19.112Z,64.35
2019-04-12T18:48:48.806Z,65.75
2019-04-12T18:51:18.380Z,65.64
2019-04-12T18:53:47.869Z,65.80
2019-04-12T18:56:17.368Z,65.57
2019-04-12T18:58:46.836Z,65.62
2019-04-12T19:01:16.498Z,66.08
2019-04-12T19:03:45.976Z,66.33
2019-04-12T19:06:15.481Z,66.53
2019-04-12T19:08:45.057Z,66.90
2019-04-12T19:11:14.560Z,66.71
2019-04-12T19:13:44.063Z,67.06
2019-04-12T19:16:13.682Z,67.67
2019-04-12T19:18:43.249Z,67.85
2019-04-12T19:21:12.753Z,67.49
2019-04-12T19:23:42.349Z,68.65
2019-04-12T19:26:11.988Z,68.50
2019-04-12T19:28:41.620Z,68.74
2019-04-12T19:31:12.857Z,70.20
2019-04-12T19:33:50.969Z,68.87
2019-04-12T19:36:22.130Z,69.35
2019-04-12T19:38:56.307Z,68.57
2019-04-12T19:41:27.213Z,68.66
2019-04-12T19:43:57.557Z,69.23
2019-04-12T19:46:27.119Z,68.13
2019-04-12T19:48:56.774Z,69.95
2019-04-12T19:51:26.275Z,68.73
2019-04-12T19:53:55.836Z,67.41
2019-04-12T19:56:25.410Z,68.09
2019-04-12T19:58:55.036Z,67.37
2019-04-12T20:01:24.595Z,67.76
2019-04-12T20:03:54.092Z,67.58
2019-04-12T20:06:23.622Z,67.64
2019-04-12T20:08:53.157Z,67.84
2019-04-12T20:11:22.710Z,68.45
2019-04-12T20:13:52.232Z,67.34
2019-04-12T20:16:21.732Z,67.00
2019-04-12T20:18:51.332Z,67.54
2019-04-12T20:21:20.824Z,67.16
2019-04-12T20:23:50.315Z,67.20
2019-04-12T20:26:19.804Z,67.90
2019-04-12T20:28:49.399Z,67.82
2019-04-12T20:31:18.904Z,67.97
2019-04-12T20:33:48.407Z,68.70
2019-04-12T20:36:17.968Z,67.92
2019-04-12T20:38:47.528Z,66.86
2019-04-12T20:41:17.107Z,67.14
2019-04-12T20:43:46.671Z,67.04
2019-04-12T20:46:16.190Z,66.87
2019-04-12T20:48:45.993Z,67.01
2019-04-12T20:51:15.480Z,67.16
2019-04-12T20:53:44.979Z,68.24
2019-04-12T20:56:15.830Z,68.25
2019-04-12T20:58:45.604Z,67.42
2019-04-12T21:01:15.119Z,68.50
2019-04-12T21:03:44.687Z,68.03
2019-04-12T21:06:14.180Z,68.05
2019-04-12T21:08:43.705Z,68.86
2019-04-12T21:11:13.330Z,68.93
2019-04-12T21:13:42.883Z,69.59
2019-04-12T21:16:12.484Z,69.72
2019-04-12T21:18:42.048Z,68.71
2019-04-12T21:21:11.528Z,68.72
2019-04-12T21:23:41.031Z,69.42
2019-04-12T21:26:10.522Z,69.17
2019-04-12T21:28:40.025Z,70.05
2019-04-12T21:31:09.512Z,69.87
2019-04-12T21:33:39.058Z,70.57
2019-04-12T21:36:08.646Z,70.31
2019-04-12T21:38:40.304Z,69.29
2019-04-12T21:44:10.903Z,70.71
2019-04-12T21:46:31.357Z,69.62
2019-04-12T21:49:00.867Z,71.04
2019-04-12T21:51:30.428Z,71.66
2019-04-12T21:53:59.886Z,70.40
2019-04-12T21:56:29.387Z,71.07
2019-04-12T21:58:58.885Z,71.14
2019-04-12T22:01:28.989Z,71.49
2019-04-12T22:03:58.865Z,72.46
2019-04-12T22:06:28.517Z,71.63
2019-04-12T22:08:58.074Z,71.94
2019-04-12T22:11:27.577Z,72.87
2019-04-12T22:13:57.083Z,72.79
2019-04-12T22:16:26.578Z,72.94
2019-04-12T22:18:56.119Z,72.51
2019-04-12T22:21:25.626Z,73.10
2019-04-12T22:23:55.134Z,73.80
2019-04-12T22:26:24.693Z,73.29
2019-04-12T22:28:54.262Z,75.06
2019-04-12T22:31:25.507Z,74.86
2019-04-12T22:33:55.223Z,75.73
2019-04-12T22:36:25.053Z,74.78
2019-04-12T22:38:54.547Z,74.46
2019-04-12T22:41:24.037Z,74.40
2019-04-12T22:43:53.526Z,74.50
2019-04-12T22:46:23.551Z,75.07
2019-04-12T22:48:53.035Z,75.04
2019-04-12T22:51:22.510Z,75.44
2019-04-12T22:53:52.013Z,75.76
2019-04-12T22:56:21.585Z,77.17
2019-04-12T22:58:51.077Z,76.36
2019-04-12T23:01:20.543Z,74.34
2019-04-12T23:03:50.057Z,75.22
2019-04-12T23:06:19.543Z,76.48
2019-04-12T23:08:49.025Z,75.58
2019-04-12T23:11:18.580Z,75.85
2019-04-12T23:13:48.052Z,75.49
2019-04-12T23:16:17.575Z,76.18
2019-04-12T23:18:47.071Z,76.66
2019-04-12T23:21:16.571Z,76.45
2019-04-12T23:23:46.199Z,76.52
2019-04-12T23:26:15.760Z,77.83
2019-04-12T23:28:45.271Z,77.94
2019-04-12T23:31:34.716Z,79.08
2019-04-12T23:34:16.500Z,78.94
2019-04-12T23:36:37.084Z,79.67
2019-04-12T23:39:07.787Z,80.10
2019-04-12T23:41:37.279Z,80.35
2019-04-12T23:44:06.796Z,79.56
2019-04-12T23:46:36.297Z,79.68
2019-04-12T23:49:05.919Z,79.52
2019-04-12T23:51:35.420Z,79.65
2019-04-12T23:54:05.000Z,80.34
2019-04-12T23:56:34.480Z,80.67
2019-04-12T23:59:04.052Z,81.27
